UAL1283 KDEN-KEWR
Flight info
| Callsign | UAL1283 |
|---|---|
| Flight time | 2h 42m |
| Altitude | 39000 |
| Route | EEONS8 WYNDM OVR DSM EVOTE NELLS KEEHO J584 SLT FQM3 |
| Aircraft | B772/H-SDE2E3FGHIJ5LORVWXY/LB1D1 |
Departure
| Time | 2026-05-06 22:50 |
|---|---|
| Airport | Denver International Airport (KDEN) |
Arrival
| Time | 2026-05-07 01:33 |
|---|---|
| Airport | Newark Liberty International Airport (KEWR) |
| Time | Latitude | Longitude | Altitude | Speed | Heading |
|---|---|---|---|---|---|
| 2026-05-06 22:30 | 39.85808 | -104.67546 | 5382 ft | 0 kts | 360° |
| 2026-05-06 22:30 | 39.85811 | -104.67546 | 5382 ft | 0 kts | 360° |
| 2026-05-06 22:42 | 39.85794 | -104.67546 | 5378 ft | 4 kts | 1° |
| 2026-05-06 22:42 | 39.85767 | -104.67547 | 5382 ft | 3 kts | 1° |
| 2026-05-06 22:42 | 39.85744 | -104.67550 | 5383 ft | 4 kts | 32° |
| 2026-05-06 22:42 | 39.85732 | -104.67574 | 5384 ft | 4 kts | 89° |
| 2026-05-06 22:43 | 39.85733 | -104.67601 | 5384 ft | 1 kts | 91° |
| 2026-05-06 22:43 | 39.85733 | -104.67606 | 5384 ft | 0 kts | 91° |
| 2026-05-06 22:45 | 39.85733 | -104.67605 | 5384 ft | 2 kts | 91° |
| 2026-05-06 22:45 | 39.85732 | -104.67522 | 5383 ft | 13 kts | 91° |
| 2026-05-06 22:45 | 39.85730 | -104.67371 | 5384 ft | 20 kts | 91° |
| 2026-05-06 22:45 | 39.85728 | -104.67165 | 5384 ft | 25 kts | 90° |
| 2026-05-06 22:46 | 39.85728 | -104.66920 | 5384 ft | 27 kts | 91° |
| 2026-05-06 22:46 | 39.85661 | -104.66697 | 5381 ft | 27 kts | 91° |
| 2026-05-06 22:46 | 39.85680 | -104.66453 | 5387 ft | 27 kts | 88° |
| 2026-05-06 22:46 | 39.85717 | -104.66242 | 5383 ft | 22 kts | 21° |
| 2026-05-06 22:47 | 39.85877 | -104.66233 | 5389 ft | 26 kts | 0° |
| 2026-05-06 22:47 | 39.86079 | -104.66231 | 5388 ft | 30 kts | 1° |
| 2026-05-06 22:47 | 39.86285 | -104.66227 | 5384 ft | 30 kts | 1° |
| 2026-05-06 22:47 | 39.86492 | -104.66226 | 5381 ft | 30 kts | 359° |
| 2026-05-06 22:48 | 39.86698 | -104.66224 | 5380 ft | 30 kts | 0° |
| 2026-05-06 22:48 | 39.86904 | -104.66221 | 5374 ft | 30 kts | 0° |
| 2026-05-06 22:48 | 39.87110 | -104.66219 | 5370 ft | 30 kts | 0° |
| 2026-05-06 22:48 | 39.87317 | -104.66214 | 5366 ft | 30 kts | 2° |
| 2026-05-06 22:49 | 39.87522 | -104.66212 | 5362 ft | 30 kts | 359° |
| 2026-05-06 22:49 | 39.87627 | -104.66212 | 5364 ft | 1 kts | 0° |
| 2026-05-06 22:49 | 39.87715 | -104.66211 | 5364 ft | 19 kts | 2° |
| 2026-05-06 22:49 | 39.87756 | -104.66058 | 5363 ft | 33 kts | 91° |
| 2026-05-06 22:50 | 39.87750 | -104.65468 | 5357 ft | 99 kts | 91° |
| 2026-05-06 22:50 | 39.87739 | -104.64280 | 5345 ft | 161 kts | 91° |
| 2026-05-06 22:50 | 39.87715 | -104.62768 | 5891 ft | 169 kts | 91° |
| 2026-05-06 22:50 | 39.87706 | -104.61207 | 6728 ft | 176 kts | 91° |
| 2026-05-06 22:51 | 39.87700 | -104.59598 | 7237 ft | 188 kts | 91° |
| 2026-05-06 22:51 | 39.87706 | -104.57812 | 7392 ft | 205 kts | 85° |
| 2026-05-06 22:51 | 39.88033 | -104.55910 | 7488 ft | 225 kts | 72° |
| 2026-05-06 22:51 | 39.88534 | -104.53886 | 7673 ft | 246 kts | 71° |
| 2026-05-06 22:52 | 39.89086 | -104.51671 | 7870 ft | 268 kts | 72° |
| 2026-05-06 22:52 | 39.89468 | -104.50107 | 8128 ft | 278 kts | 72° |
| 2026-05-06 22:52 | 39.90049 | -104.47671 | 8794 ft | 283 kts | 72° |
| 2026-05-06 22:52 | 39.90630 | -104.45188 | 9501 ft | 288 kts | 72° |
| 2026-05-06 22:53 | 39.91213 | -104.42672 | 10248 ft | 292 kts | 72° |
| 2026-05-06 22:53 | 39.91820 | -104.40049 | 10530 ft | 315 kts | 72° |
| 2026-05-06 22:53 | 39.92450 | -104.37232 | 10764 ft | 341 kts | 73° |
| 2026-05-06 22:53 | 39.93113 | -104.34200 | 11400 ft | 354 kts | 72° |
| 2026-05-06 22:54 | 39.93794 | -104.31069 | 12199 ft | 364 kts | 72° |
| 2026-05-06 22:54 | 39.94490 | -104.27870 | 13176 ft | 371 kts | 71° |
| 2026-05-06 22:54 | 39.95201 | -104.24606 | 14099 ft | 378 kts | 71° |
| 2026-05-06 22:54 | 39.95925 | -104.21287 | 15016 ft | 383 kts | 70° |
| 2026-05-06 22:55 | 39.96651 | -104.17953 | 16110 ft | 382 kts | 70° |
| 2026-05-06 22:55 | 39.97362 | -104.14609 | 17100 ft | 385 kts | 72° |
| 2026-05-06 22:55 | 39.97854 | -104.11160 | 17960 ft | 393 kts | 78° |
| 2026-05-06 22:55 | 39.98194 | -104.07598 | 18797 ft | 398 kts | 80° |
| 2026-05-06 22:56 | 39.98513 | -104.03994 | 19596 ft | 401 kts | 79° |
| 2026-05-06 22:56 | 39.98863 | -104.00371 | 20423 ft | 403 kts | 78° |
| 2026-05-06 22:56 | 39.99246 | -103.96737 | 21220 ft | 406 kts | 77° |
| 2026-05-06 22:56 | 39.99645 | -103.93070 | 21991 ft | 410 kts | 77° |
| 2026-05-06 22:57 | 40.00117 | -103.89386 | 22743 ft | 413 kts | 74° |
| 2026-05-06 22:57 | 40.00715 | -103.85712 | 23543 ft | 416 kts | 72° |
| 2026-05-06 22:57 | 40.01348 | -103.81992 | 24075 ft | 425 kts | 73° |
| 2026-05-06 22:57 | 40.01968 | -103.78199 | 24709 ft | 428 kts | 73° |
| 2026-05-06 22:58 | 40.02572 | -103.74418 | 25549 ft | 426 kts | 73° |
| 2026-05-06 22:58 | 40.03185 | -103.70652 | 26405 ft | 423 kts | 72° |
| 2026-05-06 22:58 | 40.03802 | -103.66899 | 27127 ft | 424 kts | 72° |
| 2026-05-06 22:58 | 40.04424 | -103.63127 | 27737 ft | 427 kts | 71° |
| 2026-05-06 22:59 | 40.05050 | -103.59333 | 28324 ft | 430 kts | 71° |
| 2026-05-06 22:59 | 40.05679 | -103.55503 | 28950 ft | 431 kts | 71° |
| 2026-05-06 22:59 | 40.06304 | -103.51676 | 29600 ft | 432 kts | 71° |
| 2026-05-06 22:59 | 40.06928 | -103.47841 | 30213 ft | 434 kts | 71° |
| 2026-05-06 23:00 | 40.07561 | -103.43950 | 30492 ft | 441 kts | 71° |
| 2026-05-06 23:00 | 40.08201 | -103.40007 | 30770 ft | 447 kts | 71° |
| 2026-05-06 23:00 | 40.08846 | -103.36020 | 31086 ft | 452 kts | 72° |
| 2026-05-06 23:00 | 40.09495 | -103.31986 | 31402 ft | 456 kts | 72° |
| 2026-05-06 23:01 | 40.10148 | -103.27915 | 31692 ft | 460 kts | 72° |
| 2026-05-06 23:01 | 40.10806 | -103.23808 | 31953 ft | 464 kts | 72° |
| 2026-05-06 23:01 | 40.11467 | -103.19669 | 32217 ft | 468 kts | 73° |
| 2026-05-06 23:01 | 40.12134 | -103.15483 | 32463 ft | 472 kts | 73° |
| 2026-05-06 23:02 | 40.12795 | -103.11322 | 32691 ft | 478 kts | 74° |
| 2026-05-06 23:02 | 40.14165 | -103.02683 | 32987 ft | 489 kts | 74° |
| 2026-05-06 23:02 | 40.14852 | -102.98323 | 33295 ft | 491 kts | 74° |
| 2026-05-06 23:03 | 40.15540 | -102.93948 | 33641 ft | 492 kts | 74° |
| 2026-05-06 23:03 | 40.16227 | -102.89561 | 33980 ft | 493 kts | 75° |
| 2026-05-06 23:03 | 40.16914 | -102.85169 | 34257 ft | 494 kts | 75° |
| 2026-05-06 23:03 | 40.17603 | -102.80757 | 34505 ft | 496 kts | 75° |
| 2026-05-06 23:04 | 40.18292 | -102.76333 | 34769 ft | 498 kts | 75° |
| 2026-05-06 23:04 | 40.19687 | -102.67359 | 35053 ft | 506 kts | 75° |
| 2026-05-06 23:04 | 40.20384 | -102.62844 | 35363 ft | 506 kts | 75° |
| 2026-05-06 23:05 | 40.21080 | -102.58325 | 35648 ft | 507 kts | 76° |
| 2026-05-06 23:05 | 40.21776 | -102.53797 | 35906 ft | 508 kts | 76° |
| 2026-05-06 23:05 | 40.22471 | -102.49260 | 36147 ft | 510 kts | 76° |
| 2026-05-06 23:05 | 40.23166 | -102.44716 | 36393 ft | 511 kts | 76° |
| 2026-05-06 23:06 | 40.23862 | -102.40146 | 36670 ft | 512 kts | 76° |
| 2026-05-06 23:06 | 40.24560 | -102.35559 | 36804 ft | 516 kts | 76° |
| 2026-05-06 23:06 | 40.25261 | -102.30940 | 37063 ft | 517 kts | 76° |
| 2026-05-06 23:06 | 40.25956 | -102.26334 | 37384 ft | 516 kts | 76° |
| 2026-05-06 23:07 | 40.26652 | -102.21713 | 37672 ft | 516 kts | 76° |
| 2026-05-06 23:07 | 40.27345 | -102.17101 | 37919 ft | 518 kts | 76° |
| 2026-05-06 23:07 | 40.28041 | -102.12465 | 38133 ft | 519 kts | 76° |
| 2026-05-06 23:07 | 40.28734 | -102.07827 | 38368 ft | 520 kts | 76° |
| 2026-05-06 23:08 | 40.29429 | -102.03164 | 38625 ft | 522 kts | 77° |
| 2026-05-06 23:08 | 40.30823 | -101.93776 | 38891 ft | 527 kts | 77° |
| 2026-05-06 23:08 | 40.31520 | -101.89056 | 39053 ft | 528 kts | 77° |
| 2026-05-06 23:09 | 40.32216 | -101.84329 | 39087 ft | 528 kts | 77° |
| 2026-05-06 23:09 | 40.33597 | -101.74899 | 39124 ft | 526 kts | 77° |
| 2026-05-06 23:10 | 40.34966 | -101.65507 | 39144 ft | 524 kts | 77° |
| 2026-05-06 23:10 | 40.36320 | -101.56167 | 39137 ft | 525 kts | 77° |
| 2026-05-06 23:11 | 40.37678 | -101.46743 | 39135 ft | 526 kts | 77° |
| 2026-05-06 23:11 | 40.39068 | -101.37338 | 39139 ft | 527 kts | 76° |
| 2026-05-06 23:12 | 40.40612 | -101.27933 | 39155 ft | 527 kts | 76° |
| 2026-05-06 23:12 | 40.42174 | -101.18564 | 39158 ft | 529 kts | 76° |
| 2026-05-06 23:13 | 40.43716 | -101.09132 | 39157 ft | 530 kts | 76° |
| 2026-05-06 23:13 | 40.45239 | -100.99661 | 39153 ft | 530 kts | 76° |
| 2026-05-06 23:14 | 40.46751 | -100.90176 | 39151 ft | 531 kts | 76° |
| 2026-05-06 23:14 | 40.48257 | -100.80686 | 39153 ft | 531 kts | 76° |
| 2026-05-06 23:15 | 40.49760 | -100.71177 | 39145 ft | 532 kts | 76° |
| 2026-05-06 23:15 | 40.51255 | -100.61659 | 39143 ft | 531 kts | 77° |
| 2026-05-06 23:16 | 40.52739 | -100.52158 | 39133 ft | 531 kts | 77° |
| 2026-05-06 23:16 | 40.54206 | -100.42713 | 39146 ft | 531 kts | 77° |
| 2026-05-06 23:17 | 40.55677 | -100.33187 | 39148 ft | 532 kts | 77° |
| 2026-05-06 23:17 | 40.57142 | -100.23649 | 39133 ft | 532 kts | 77° |
| 2026-05-06 23:18 | 40.58602 | -100.14091 | 39129 ft | 533 kts | 77° |
| 2026-05-06 23:18 | 40.60056 | -100.04511 | 39132 ft | 534 kts | 77° |
| 2026-05-06 23:19 | 40.61503 | -99.94913 | 39133 ft | 535 kts | 77° |
| 2026-05-06 23:19 | 40.62946 | -99.85296 | 39135 ft | 535 kts | 77° |
| 2026-05-06 23:20 | 40.64381 | -99.75670 | 39141 ft | 536 kts | 78° |
| 2026-05-06 23:20 | 40.65810 | -99.66025 | 39137 ft | 537 kts | 78° |
| 2026-05-06 23:21 | 40.67231 | -99.56382 | 39132 ft | 538 kts | 78° |
| 2026-05-06 23:21 | 40.68649 | -99.46698 | 39129 ft | 538 kts | 78° |
| 2026-05-06 23:22 | 40.70054 | -99.37038 | 39118 ft | 539 kts | 78° |
| 2026-05-06 23:22 | 40.71456 | -99.27342 | 39112 ft | 539 kts | 78° |
| 2026-05-06 23:23 | 40.72852 | -99.17626 | 39108 ft | 539 kts | 78° |
| 2026-05-06 23:23 | 40.74239 | -99.07915 | 39100 ft | 539 kts | 78° |
| 2026-05-06 23:24 | 40.75623 | -98.98168 | 39188 ft | 543 kts | 79° |
| 2026-05-06 23:24 | 40.76305 | -98.93341 | 39439 ft | 541 kts | 79° |
| 2026-05-06 23:24 | 40.76989 | -98.88477 | 39740 ft | 539 kts | 79° |
| 2026-05-06 23:24 | 40.77672 | -98.83607 | 39988 ft | 539 kts | 79° |
| 2026-05-06 23:25 | 40.78351 | -98.78754 | 40213 ft | 539 kts | 79° |
| 2026-05-06 23:25 | 40.79031 | -98.73882 | 40392 ft | 539 kts | 79° |
| 2026-05-06 23:25 | 40.79708 | -98.69011 | 40571 ft | 541 kts | 79° |
| 2026-05-06 23:25 | 40.80385 | -98.64128 | 40688 ft | 542 kts | 79° |
| 2026-05-06 23:26 | 40.81062 | -98.59227 | 40884 ft | 542 kts | 79° |
| 2026-05-06 23:26 | 40.81731 | -98.54362 | 41073 ft | 542 kts | 79° |
| 2026-05-06 23:26 | 40.82402 | -98.49468 | 41109 ft | 541 kts | 79° |
| 2026-05-06 23:27 | 40.83737 | -98.39695 | 41091 ft | 540 kts | 79° |
| 2026-05-06 23:27 | 40.85058 | -98.29957 | 41086 ft | 538 kts | 79° |
| 2026-05-06 23:28 | 40.86361 | -98.20281 | 41100 ft | 538 kts | 79° |
| 2026-05-06 23:28 | 40.87663 | -98.10553 | 41085 ft | 538 kts | 79° |
| 2026-05-06 23:29 | 40.88952 | -98.00860 | 41086 ft | 539 kts | 79° |
| 2026-05-06 23:29 | 40.90241 | -97.91102 | 41088 ft | 540 kts | 79° |
| 2026-05-06 23:30 | 40.91526 | -97.81304 | 41086 ft | 541 kts | 80° |
| 2026-05-06 23:30 | 40.92804 | -97.71496 | 41087 ft | 542 kts | 80° |
| 2026-05-06 23:31 | 40.94075 | -97.61673 | 41086 ft | 543 kts | 80° |
| 2026-05-06 23:31 | 40.95342 | -97.51812 | 41082 ft | 544 kts | 80° |
| 2026-05-06 23:32 | 40.96601 | -97.41943 | 41113 ft | 545 kts | 80° |
| 2026-05-06 23:32 | 40.97855 | -97.32042 | 41111 ft | 545 kts | 80° |
| 2026-05-06 23:33 | 40.99097 | -97.22168 | 41106 ft | 546 kts | 80° |
| 2026-05-06 23:33 | 41.00336 | -97.12244 | 41107 ft | 546 kts | 80° |
| 2026-05-06 23:34 | 41.01566 | -97.02320 | 41104 ft | 546 kts | 80° |
| 2026-05-06 23:34 | 41.02785 | -96.92409 | 41097 ft | 546 kts | 81° |
| 2026-05-06 23:35 | 41.03996 | -96.82499 | 41103 ft | 546 kts | 81° |
| 2026-05-06 23:35 | 41.05202 | -96.72558 | 41094 ft | 547 kts | 81° |
| 2026-05-06 23:36 | 41.06398 | -96.62614 | 41092 ft | 547 kts | 81° |
| 2026-05-06 23:36 | 41.07586 | -96.52666 | 41098 ft | 547 kts | 81° |
| 2026-05-06 23:37 | 41.08767 | -96.42707 | 41093 ft | 547 kts | 81° |
| 2026-05-06 23:37 | 41.09933 | -96.32796 | 41089 ft | 548 kts | 81° |
| 2026-05-06 23:38 | 41.11097 | -96.22820 | 41087 ft | 548 kts | 81° |
| 2026-05-06 23:38 | 41.12252 | -96.12853 | 41085 ft | 548 kts | 81° |
| 2026-05-06 23:39 | 41.13402 | -96.02845 | 41078 ft | 549 kts | 81° |
| 2026-05-06 23:39 | 41.14544 | -95.92832 | 41075 ft | 549 kts | 82° |
| 2026-05-06 23:40 | 41.15678 | -95.82805 | 41073 ft | 550 kts | 82° |
| 2026-05-06 23:40 | 41.16807 | -95.72763 | 41080 ft | 551 kts | 81° |
| 2026-05-06 23:41 | 41.17884 | -95.64415 | 41085 ft | 556 kts | 79° |
| 2026-05-06 23:41 | 41.19330 | -95.54329 | 41105 ft | 562 kts | 79° |
| 2026-05-06 23:42 | 41.20786 | -95.44089 | 41101 ft | 566 kts | 79° |
| 2026-05-06 23:42 | 41.22202 | -95.33779 | 41096 ft | 570 kts | 79° |
| 2026-05-06 23:43 | 41.23605 | -95.23369 | 41087 ft | 574 kts | 80° |
| 2026-05-06 23:43 | 41.25005 | -95.12906 | 41080 ft | 576 kts | 80° |
| 2026-05-06 23:44 | 41.26402 | -95.02414 | 41078 ft | 578 kts | 80° |
| 2026-05-06 23:44 | 41.27797 | -94.91879 | 41076 ft | 579 kts | 80° |
| 2026-05-06 23:45 | 41.29185 | -94.81313 | 41082 ft | 581 kts | 80° |
| 2026-05-06 23:45 | 41.30567 | -94.70712 | 41098 ft | 582 kts | 80° |
| 2026-05-06 23:46 | 41.31942 | -94.60094 | 41099 ft | 583 kts | 80° |
| 2026-05-06 23:46 | 41.33299 | -94.49523 | 41106 ft | 584 kts | 80° |
| 2026-05-06 23:47 | 41.34660 | -94.38854 | 41097 ft | 585 kts | 80° |
| 2026-05-06 23:47 | 41.36013 | -94.28156 | 41099 ft | 586 kts | 80° |
| 2026-05-06 23:48 | 41.37355 | -94.17463 | 41099 ft | 586 kts | 80° |
| 2026-05-06 23:48 | 41.38689 | -94.06749 | 41103 ft | 587 kts | 80° |
| 2026-05-06 23:49 | 41.40015 | -93.96017 | 41101 ft | 587 kts | 81° |
| 2026-05-06 23:49 | 41.41321 | -93.85364 | 41107 ft | 588 kts | 81° |
| 2026-05-06 23:50 | 41.42624 | -93.74645 | 41101 ft | 588 kts | 81° |
| 2026-05-06 23:50 | 41.44514 | -93.58481 | 41102 ft | 589 kts | 82° |
| 2026-05-06 23:51 | 41.45550 | -93.47660 | 41101 ft | 589 kts | 83° |
| 2026-05-06 23:51 | 41.46536 | -93.36824 | 41098 ft | 589 kts | 83° |
| 2026-05-06 23:52 | 41.47533 | -93.26104 | 41088 ft | 589 kts | 83° |
| 2026-05-06 23:52 | 41.48555 | -93.15267 | 41083 ft | 589 kts | 83° |
| 2026-05-06 23:53 | 41.49570 | -93.04436 | 41074 ft | 588 kts | 83° |
| 2026-05-06 23:53 | 41.50573 | -92.93597 | 41072 ft | 589 kts | 83° |
| 2026-05-06 23:54 | 41.51563 | -92.82748 | 41085 ft | 589 kts | 83° |
| 2026-05-06 23:54 | 41.52544 | -92.71888 | 41087 ft | 590 kts | 83° |
| 2026-05-06 23:55 | 41.53513 | -92.61030 | 41126 ft | 590 kts | 83° |
| 2026-05-06 23:55 | 41.54476 | -92.50144 | 41100 ft | 590 kts | 83° |
| 2026-05-06 23:56 | 41.55425 | -92.39289 | 41090 ft | 589 kts | 84° |
| 2026-05-06 23:56 | 41.56364 | -92.28437 | 41081 ft | 588 kts | 84° |
| 2026-05-06 23:57 | 41.57290 | -92.17601 | 41086 ft | 587 kts | 84° |
| 2026-05-06 23:57 | 41.58207 | -92.06758 | 41087 ft | 587 kts | 84° |
| 2026-05-06 23:58 | 41.59114 | -91.95905 | 41083 ft | 588 kts | 84° |
| 2026-05-06 23:58 | 41.60011 | -91.85041 | 41079 ft | 588 kts | 84° |
| 2026-05-06 23:59 | 41.60893 | -91.74236 | 41088 ft | 589 kts | 84° |
| 2026-05-06 23:59 | 41.61772 | -91.63347 | 41084 ft | 590 kts | 84° |
| 2026-05-07 00:00 | 41.62639 | -91.52475 | 41073 ft | 591 kts | 84° |
| 2026-05-07 00:00 | 41.63500 | -91.41544 | 41079 ft | 591 kts | 84° |
| 2026-05-07 00:01 | 41.64351 | -91.30597 | 41087 ft | 592 kts | 84° |
| 2026-05-07 00:01 | 41.65192 | -91.19643 | 41085 ft | 593 kts | 84° |
| 2026-05-07 00:02 | 41.66025 | -91.08669 | 41077 ft | 593 kts | 85° |
| 2026-05-07 00:02 | 41.66846 | -90.97704 | 41086 ft | 593 kts | 85° |
| 2026-05-07 00:03 | 41.67657 | -90.86720 | 41072 ft | 593 kts | 85° |
| 2026-05-07 00:03 | 41.68459 | -90.75734 | 41053 ft | 593 kts | 85° |
| 2026-05-07 00:04 | 41.69250 | -90.64745 | 41060 ft | 593 kts | 85° |
| 2026-05-07 00:04 | 41.70030 | -90.53759 | 41062 ft | 593 kts | 85° |
| 2026-05-07 00:05 | 41.70800 | -90.42752 | 41065 ft | 594 kts | 85° |
| 2026-05-07 00:05 | 41.71555 | -90.31820 | 41061 ft | 594 kts | 85° |
| 2026-05-07 00:06 | 41.72305 | -90.20807 | 41069 ft | 594 kts | 85° |
| 2026-05-07 00:06 | 41.73045 | -90.09788 | 41067 ft | 595 kts | 85° |
| 2026-05-07 00:07 | 41.73774 | -89.98755 | 41072 ft | 595 kts | 86° |
| 2026-05-07 00:07 | 41.74494 | -89.87714 | 41072 ft | 595 kts | 86° |
| 2026-05-07 00:08 | 41.75203 | -89.76666 | 41069 ft | 595 kts | 86° |
| 2026-05-07 00:08 | 41.75894 | -89.65746 | 41061 ft | 596 kts | 86° |
| 2026-05-07 00:09 | 41.76582 | -89.54698 | 41066 ft | 595 kts | 86° |
| 2026-05-07 00:09 | 41.77260 | -89.43642 | 41064 ft | 595 kts | 86° |
| 2026-05-07 00:10 | 41.77924 | -89.32622 | 41073 ft | 595 kts | 86° |
| 2026-05-07 00:10 | 41.78580 | -89.21588 | 40997 ft | 590 kts | 86° |
| 2026-05-07 00:11 | 41.78899 | -89.16148 | 40715 ft | 591 kts | 86° |
| 2026-05-07 00:11 | 41.79217 | -89.10678 | 40440 ft | 595 kts | 86° |
| 2026-05-07 00:11 | 41.79536 | -89.05134 | 40252 ft | 598 kts | 86° |
| 2026-05-07 00:11 | 41.79854 | -88.99575 | 40175 ft | 598 kts | 86° |
| 2026-05-07 00:12 | 41.80169 | -88.94008 | 39965 ft | 599 kts | 86° |
| 2026-05-07 00:12 | 41.80482 | -88.88448 | 39732 ft | 597 kts | 86° |
| 2026-05-07 00:12 | 41.80792 | -88.82902 | 39497 ft | 597 kts | 87° |
| 2026-05-07 00:12 | 41.81098 | -88.77355 | 39288 ft | 598 kts | 87° |
| 2026-05-07 00:13 | 41.81401 | -88.71825 | 39076 ft | 599 kts | 87° |
| 2026-05-07 00:13 | 41.81702 | -88.66273 | 38865 ft | 600 kts | 87° |
| 2026-05-07 00:13 | 41.82002 | -88.60692 | 38630 ft | 601 kts | 87° |
| 2026-05-07 00:13 | 41.82300 | -88.55105 | 38368 ft | 601 kts | 87° |
| 2026-05-07 00:14 | 41.82594 | -88.49537 | 38100 ft | 601 kts | 87° |
| 2026-05-07 00:14 | 41.82887 | -88.43947 | 37821 ft | 602 kts | 87° |
| 2026-05-07 00:14 | 41.83177 | -88.38345 | 37467 ft | 604 kts | 87° |
| 2026-05-07 00:14 | 41.83466 | -88.32712 | 37078 ft | 606 kts | 88° |
| 2026-05-07 00:15 | 41.83753 | -88.27061 | 36713 ft | 608 kts | 88° |
| 2026-05-07 00:15 | 41.84038 | -88.21403 | 36347 ft | 609 kts | 88° |
| 2026-05-07 00:15 | 41.84315 | -88.15843 | 36001 ft | 609 kts | 88° |
| 2026-05-07 00:15 | 41.84599 | -88.10098 | 35637 ft | 610 kts | 88° |
| 2026-05-07 00:16 | 41.84876 | -88.04424 | 35280 ft | 610 kts | 88° |
| 2026-05-07 00:16 | 41.85151 | -87.98732 | 35006 ft | 612 kts | 88° |
| 2026-05-07 00:16 | 41.85690 | -87.87400 | 35024 ft | 615 kts | 88° |
| 2026-05-07 00:17 | 41.86224 | -87.75945 | 35018 ft | 617 kts | 88° |
| 2026-05-07 00:17 | 41.86750 | -87.64438 | 35009 ft | 617 kts | 89° |
| 2026-05-07 00:18 | 41.87261 | -87.52984 | 35019 ft | 618 kts | 89° |
| 2026-05-07 00:18 | 41.87762 | -87.41493 | 35011 ft | 619 kts | 89° |
| 2026-05-07 00:19 | 41.88249 | -87.30068 | 34988 ft | 619 kts | 89° |
| 2026-05-07 00:19 | 41.88732 | -87.18452 | 35014 ft | 620 kts | 89° |
| 2026-05-07 00:20 | 41.89200 | -87.06910 | 35018 ft | 622 kts | 89° |
| 2026-05-07 00:20 | 41.89660 | -86.95310 | 35016 ft | 622 kts | 89° |
| 2026-05-07 00:21 | 41.90105 | -86.83762 | 35016 ft | 624 kts | 89° |
| 2026-05-07 00:21 | 41.90542 | -86.72122 | 35019 ft | 625 kts | 89° |
| 2026-05-07 00:22 | 41.90967 | -86.60489 | 35005 ft | 625 kts | 89° |
| 2026-05-07 00:22 | 41.91382 | -86.48820 | 34992 ft | 626 kts | 90° |
| 2026-05-07 00:23 | 41.91785 | -86.37148 | 35008 ft | 626 kts | 90° |
| 2026-05-07 00:23 | 41.92174 | -86.25543 | 35010 ft | 626 kts | 90° |
| 2026-05-07 00:24 | 41.92555 | -86.13815 | 35019 ft | 626 kts | 90° |
| 2026-05-07 00:24 | 41.92922 | -86.02165 | 35000 ft | 624 kts | 90° |
| 2026-05-07 00:25 | 41.93275 | -85.90610 | 35000 ft | 622 kts | 90° |
| 2026-05-07 00:25 | 41.93616 | -85.78998 | 34994 ft | 622 kts | 90° |
| 2026-05-07 00:26 | 41.93946 | -85.67391 | 34992 ft | 621 kts | 90° |
| 2026-05-07 00:26 | 41.94263 | -85.55839 | 34994 ft | 621 kts | 90° |
| 2026-05-07 00:27 | 41.94568 | -85.44266 | 34993 ft | 622 kts | 90° |
| 2026-05-07 00:27 | 41.94862 | -85.32715 | 34995 ft | 623 kts | 91° |
| 2026-05-07 00:28 | 41.95143 | -85.21099 | 34998 ft | 625 kts | 91° |
| 2026-05-07 00:28 | 41.95185 | -85.09436 | 34991 ft | 625 kts | 94° |
| 2026-05-07 00:29 | 41.95067 | -84.97762 | 34982 ft | 626 kts | 94° |
| 2026-05-07 00:30 | 41.94909 | -84.76262 | 34999 ft | 630 kts | 94° |
| 2026-05-07 00:30 | 41.94847 | -84.64478 | 34962 ft | 631 kts | 94° |
| 2026-05-07 00:31 | 41.94766 | -84.52670 | 34996 ft | 633 kts | 94° |
| 2026-05-07 00:31 | 41.94667 | -84.40815 | 34984 ft | 635 kts | 94° |
| 2026-05-07 00:32 | 41.94555 | -84.28990 | 34997 ft | 635 kts | 94° |
| 2026-05-07 00:32 | 41.94433 | -84.17159 | 34995 ft | 637 kts | 95° |
| 2026-05-07 00:33 | 41.94297 | -84.05255 | 35008 ft | 638 kts | 95° |
| 2026-05-07 00:33 | 41.94149 | -83.93326 | 35001 ft | 639 kts | 95° |
| 2026-05-07 00:34 | 41.93988 | -83.81379 | 34985 ft | 640 kts | 95° |
| 2026-05-07 00:34 | 41.93822 | -83.69418 | 34991 ft | 640 kts | 95° |
| 2026-05-07 00:35 | 41.93635 | -83.57463 | 34986 ft | 641 kts | 95° |
| 2026-05-07 00:35 | 41.93442 | -83.45504 | 34976 ft | 642 kts | 95° |
| 2026-05-07 00:36 | 41.93398 | -83.39662 | 34961 ft | 629 kts | 94° |
| 2026-05-07 00:36 | 41.93389 | -83.33806 | 34958 ft | 611 kts | 94° |
| 2026-05-07 00:36 | 41.93391 | -83.28174 | 34960 ft | 594 kts | 94° |
| 2026-05-07 00:36 | 41.93386 | -83.22710 | 34981 ft | 594 kts | 94° |
| 2026-05-07 00:37 | 41.93335 | -83.11556 | 34960 ft | 592 kts | 94° |
| 2026-05-07 00:37 | 41.93256 | -83.00616 | 34980 ft | 589 kts | 95° |
| 2026-05-07 00:38 | 41.93165 | -82.89668 | 34980 ft | 588 kts | 95° |
| 2026-05-07 00:38 | 41.93068 | -82.78708 | 34984 ft | 589 kts | 95° |
| 2026-05-07 00:39 | 41.92962 | -82.67678 | 34986 ft | 593 kts | 95° |
| 2026-05-07 00:39 | 41.92844 | -82.56569 | 34997 ft | 597 kts | 95° |
| 2026-05-07 00:40 | 41.92716 | -82.45403 | 34995 ft | 599 kts | 95° |
| 2026-05-07 00:40 | 41.92577 | -82.34260 | 34978 ft | 599 kts | 95° |
| 2026-05-07 00:41 | 41.92421 | -82.22940 | 35013 ft | 615 kts | 95° |
| 2026-05-07 00:41 | 41.92251 | -82.11305 | 35012 ft | 630 kts | 95° |
| 2026-05-07 00:42 | 41.92070 | -81.99444 | 35063 ft | 639 kts | 95° |
| 2026-05-07 00:42 | 41.91876 | -81.87442 | 35014 ft | 645 kts | 95° |
| 2026-05-07 00:43 | 41.91266 | -81.75487 | 35011 ft | 640 kts | 102° |
| 2026-05-07 00:43 | 41.90157 | -81.63715 | 34986 ft | 639 kts | 102° |
| 2026-05-07 00:44 | 41.89023 | -81.51936 | 35010 ft | 641 kts | 102° |
| 2026-05-07 00:44 | 41.87929 | -81.40058 | 35016 ft | 642 kts | 102° |
| 2026-05-07 00:45 | 41.86848 | -81.28161 | 34995 ft | 643 kts | 102° |
| 2026-05-07 00:45 | 41.85759 | -81.16364 | 35015 ft | 644 kts | 102° |
| 2026-05-07 00:46 | 41.84636 | -81.04418 | 34991 ft | 648 kts | 102° |
| 2026-05-07 00:46 | 41.83492 | -80.92430 | 35013 ft | 652 kts | 102° |
| 2026-05-07 00:47 | 41.82330 | -80.80338 | 35005 ft | 655 kts | 102° |
| 2026-05-07 00:47 | 41.81155 | -80.68223 | 35002 ft | 655 kts | 102° |
| 2026-05-07 00:48 | 41.79968 | -80.56137 | 35000 ft | 654 kts | 102° |
| 2026-05-07 00:48 | 41.78764 | -80.44065 | 34989 ft | 652 kts | 102° |
| 2026-05-07 00:49 | 41.77550 | -80.32057 | 34998 ft | 652 kts | 102° |
| 2026-05-07 00:49 | 41.76322 | -80.20024 | 34993 ft | 652 kts | 103° |
| 2026-05-07 00:50 | 41.75084 | -80.08013 | 34984 ft | 651 kts | 102° |
| 2026-05-07 00:50 | 41.73834 | -79.95993 | 34997 ft | 651 kts | 103° |
| 2026-05-07 00:51 | 41.72571 | -79.83987 | 35010 ft | 651 kts | 103° |
| 2026-05-07 00:51 | 41.71297 | -79.71991 | 34999 ft | 651 kts | 103° |
| 2026-05-07 00:52 | 41.70009 | -79.60001 | 35004 ft | 651 kts | 103° |
| 2026-05-07 00:52 | 41.68709 | -79.48002 | 35008 ft | 651 kts | 103° |
| 2026-05-07 00:53 | 41.67393 | -79.36009 | 35001 ft | 651 kts | 103° |
| 2026-05-07 00:53 | 41.66072 | -79.24035 | 34991 ft | 651 kts | 103° |
| 2026-05-07 00:54 | 41.64738 | -79.12055 | 34972 ft | 651 kts | 103° |
| 2026-05-07 00:54 | 41.63394 | -79.00111 | 34936 ft | 649 kts | 103° |
| 2026-05-07 00:55 | 41.62052 | -78.88214 | 34963 ft | 649 kts | 103° |
| 2026-05-07 00:55 | 41.60689 | -78.76294 | 34953 ft | 649 kts | 103° |
| 2026-05-07 00:56 | 41.59313 | -78.64367 | 34940 ft | 649 kts | 103° |
| 2026-05-07 00:56 | 41.57927 | -78.52459 | 34947 ft | 649 kts | 103° |
| 2026-05-07 00:57 | 41.56538 | -78.40634 | 34952 ft | 648 kts | 103° |
| 2026-05-07 00:57 | 41.55129 | -78.28749 | 34962 ft | 648 kts | 103° |
| 2026-05-07 00:58 | 41.53711 | -78.16937 | 34950 ft | 644 kts | 103° |
| 2026-05-07 00:58 | 41.53014 | -78.11101 | 34481 ft | 633 kts | 103° |
| 2026-05-07 00:58 | 41.52316 | -78.05321 | 33673 ft | 632 kts | 104° |
| 2026-05-07 00:59 | 41.50917 | -77.93917 | 32910 ft | 609 kts | 104° |
| 2026-05-07 00:59 | 41.50176 | -77.88421 | 32892 ft | 592 kts | 105° |
| 2026-05-07 01:00 | 41.48590 | -77.77601 | 32955 ft | 603 kts | 106° |
| 2026-05-07 01:00 | 41.46972 | -77.66574 | 32653 ft | 600 kts | 106° |
| 2026-05-07 01:00 | 41.46187 | -77.61127 | 32163 ft | 595 kts | 106° |
| 2026-05-07 01:01 | 41.45427 | -77.55759 | 31829 ft | 585 kts | 106° |
| 2026-05-07 01:01 | 41.44679 | -77.50477 | 31585 ft | 574 kts | 106° |
| 2026-05-07 01:01 | 41.43937 | -77.45295 | 31306 ft | 565 kts | 107° |
| 2026-05-07 01:01 | 41.43192 | -77.40180 | 30906 ft | 560 kts | 107° |
| 2026-05-07 01:02 | 41.42449 | -77.35131 | 30437 ft | 557 kts | 107° |
| 2026-05-07 01:02 | 41.41703 | -77.30080 | 30011 ft | 553 kts | 107° |
| 2026-05-07 01:02 | 41.40962 | -77.25074 | 29555 ft | 549 kts | 107° |
| 2026-05-07 01:02 | 41.40239 | -77.20152 | 28925 ft | 533 kts | 107° |
| 2026-05-07 01:03 | 41.39535 | -77.15356 | 28073 ft | 524 kts | 107° |
| 2026-05-07 01:03 | 41.38837 | -77.10638 | 27114 ft | 518 kts | 107° |
| 2026-05-07 01:03 | 41.38141 | -77.05949 | 26303 ft | 512 kts | 107° |
| 2026-05-07 01:03 | 41.37456 | -77.01346 | 26030 ft | 506 kts | 108° |
| 2026-05-07 01:04 | 41.36760 | -76.96764 | 25758 ft | 516 kts | 108° |
| 2026-05-07 01:04 | 41.36060 | -76.92132 | 25399 ft | 515 kts | 107° |
| 2026-05-07 01:04 | 41.35364 | -76.87481 | 25061 ft | 510 kts | 107° |
| 2026-05-07 01:04 | 41.34672 | -76.82862 | 24701 ft | 505 kts | 107° |
| 2026-05-07 01:05 | 41.33990 | -76.78348 | 24394 ft | 500 kts | 108° |
| 2026-05-07 01:05 | 41.33154 | -76.73946 | 24074 ft | 490 kts | 115° |
| 2026-05-07 01:05 | 41.32068 | -76.69697 | 23783 ft | 482 kts | 118° |
| 2026-05-07 01:05 | 41.30901 | -76.65607 | 23483 ft | 478 kts | 120° |
| 2026-05-07 01:06 | 41.29696 | -76.61467 | 23113 ft | 476 kts | 120° |
| 2026-05-07 01:06 | 41.28527 | -76.57373 | 22786 ft | 473 kts | 118° |
| 2026-05-07 01:06 | 41.27407 | -76.53346 | 22485 ft | 470 kts | 118° |
| 2026-05-07 01:06 | 41.26298 | -76.49271 | 22139 ft | 468 kts | 117° |
| 2026-05-07 01:07 | 41.25209 | -76.45221 | 21849 ft | 464 kts | 117° |
| 2026-05-07 01:07 | 41.24125 | -76.41186 | 21556 ft | 462 kts | 117° |
| 2026-05-07 01:07 | 41.23050 | -76.37189 | 21278 ft | 459 kts | 117° |
| 2026-05-07 01:07 | 41.21973 | -76.33203 | 20982 ft | 457 kts | 116° |
| 2026-05-07 01:08 | 41.20903 | -76.29245 | 20693 ft | 454 kts | 116° |
| 2026-05-07 01:08 | 41.19845 | -76.25343 | 20396 ft | 451 kts | 116° |
| 2026-05-07 01:08 | 41.18784 | -76.21438 | 20116 ft | 448 kts | 116° |
| 2026-05-07 01:08 | 41.17727 | -76.17553 | 19835 ft | 444 kts | 116° |
| 2026-05-07 01:09 | 41.16684 | -76.13728 | 19539 ft | 437 kts | 116° |
| 2026-05-07 01:09 | 41.15656 | -76.09956 | 19280 ft | 431 kts | 116° |
| 2026-05-07 01:09 | 41.14640 | -76.06239 | 19009 ft | 426 kts | 116° |
| 2026-05-07 01:09 | 41.13626 | -76.02549 | 18613 ft | 428 kts | 116° |
| 2026-05-07 01:10 | 41.12598 | -75.98821 | 18102 ft | 431 kts | 115° |
| 2026-05-07 01:10 | 41.11575 | -75.95101 | 17632 ft | 428 kts | 115° |
| 2026-05-07 01:10 | 41.10557 | -75.91400 | 17153 ft | 426 kts | 115° |
| 2026-05-07 01:10 | 41.09546 | -75.87725 | 16692 ft | 423 kts | 116° |
| 2026-05-07 01:11 | 41.08546 | -75.84097 | 16243 ft | 420 kts | 116° |
| 2026-05-07 01:11 | 41.07543 | -75.80468 | 15800 ft | 418 kts | 116° |
| 2026-05-07 01:11 | 41.06560 | -75.76916 | 15346 ft | 415 kts | 115° |
| 2026-05-07 01:11 | 41.05568 | -75.73335 | 14905 ft | 412 kts | 116° |
| 2026-05-07 01:12 | 41.04580 | -75.69779 | 14467 ft | 410 kts | 116° |
| 2026-05-07 01:12 | 41.03599 | -75.66247 | 14028 ft | 408 kts | 116° |
| 2026-05-07 01:12 | 41.02620 | -75.62729 | 13585 ft | 406 kts | 116° |
| 2026-05-07 01:12 | 41.01645 | -75.59230 | 13121 ft | 403 kts | 116° |
| 2026-05-07 01:13 | 41.00687 | -75.55792 | 12946 ft | 392 kts | 116° |
| 2026-05-07 01:13 | 40.99744 | -75.52412 | 12853 ft | 390 kts | 116° |
| 2026-05-07 01:13 | 40.98812 | -75.49079 | 12532 ft | 384 kts | 116° |
| 2026-05-07 01:13 | 40.97891 | -75.45788 | 12193 ft | 379 kts | 116° |
| 2026-05-07 01:14 | 40.96984 | -75.42549 | 11842 ft | 373 kts | 116° |
| 2026-05-07 01:14 | 40.96087 | -75.39353 | 11522 ft | 368 kts | 116° |
| 2026-05-07 01:14 | 40.95201 | -75.36201 | 11194 ft | 363 kts | 117° |
| 2026-05-07 01:14 | 40.94323 | -75.33083 | 10880 ft | 359 kts | 117° |
| 2026-05-07 01:15 | 40.93460 | -75.30017 | 10618 ft | 352 kts | 117° |
| 2026-05-07 01:15 | 40.92611 | -75.27006 | 10370 ft | 346 kts | 117° |
| 2026-05-07 01:15 | 40.91774 | -75.24047 | 10118 ft | 342 kts | 117° |
| 2026-05-07 01:15 | 40.90945 | -75.21118 | 9810 ft | 339 kts | 117° |
| 2026-05-07 01:16 | 40.90130 | -75.18238 | 9497 ft | 335 kts | 117° |
| 2026-05-07 01:16 | 40.89590 | -75.16333 | 9268 ft | 333 kts | 117° |
| 2026-05-07 01:16 | 40.88786 | -75.13495 | 8972 ft | 329 kts | 117° |
| 2026-05-07 01:16 | 40.87733 | -75.09785 | 8533 ft | 325 kts | 117° |
| 2026-05-07 01:17 | 40.87213 | -75.07942 | 8351 ft | 323 kts | 117° |
| 2026-05-07 01:17 | 40.86433 | -75.05179 | 7997 ft | 320 kts | 117° |
| 2026-05-07 01:17 | 40.85671 | -75.02496 | 7723 ft | 317 kts | 116° |
| 2026-05-07 01:17 | 40.84906 | -74.99776 | 7437 ft | 315 kts | 116° |
| 2026-05-07 01:18 | 40.84145 | -74.97073 | 7117 ft | 314 kts | 116° |
| 2026-05-07 01:18 | 40.83385 | -74.94397 | 6963 ft | 308 kts | 116° |
| 2026-05-07 01:18 | 40.82635 | -74.91770 | 6924 ft | 305 kts | 118° |
| 2026-05-07 01:18 | 40.81801 | -74.89216 | 6916 ft | 306 kts | 121° |
| 2026-05-07 01:19 | 40.80894 | -74.86660 | 6923 ft | 309 kts | 122° |
| 2026-05-07 01:19 | 40.79957 | -74.84106 | 6917 ft | 309 kts | 122° |
| 2026-05-07 01:19 | 40.79019 | -74.81563 | 6903 ft | 308 kts | 122° |
| 2026-05-07 01:19 | 40.78083 | -74.79017 | 6887 ft | 307 kts | 122° |
| 2026-05-07 01:20 | 40.77263 | -74.76436 | 6878 ft | 308 kts | 109° |
| 2026-05-07 01:20 | 40.77153 | -74.73586 | 6782 ft | 318 kts | 82° |
| 2026-05-07 01:20 | 40.77752 | -74.70779 | 6544 ft | 319 kts | 70° |
| 2026-05-07 01:20 | 40.78538 | -74.68036 | 6381 ft | 321 kts | 68° |
| 2026-05-07 01:21 | 40.79360 | -74.65300 | 6288 ft | 319 kts | 68° |
| 2026-05-07 01:21 | 40.80183 | -74.62585 | 6212 ft | 318 kts | 68° |
| 2026-05-07 01:21 | 40.81005 | -74.59884 | 6116 ft | 316 kts | 68° |
| 2026-05-07 01:21 | 40.81824 | -74.57192 | 6046 ft | 315 kts | 68° |
| 2026-05-07 01:22 | 40.82631 | -74.54537 | 5986 ft | 314 kts | 68° |
| 2026-05-07 01:22 | 40.83436 | -74.51865 | 5925 ft | 312 kts | 68° |
| 2026-05-07 01:22 | 40.84220 | -74.49240 | 5927 ft | 313 kts | 68° |
| 2026-05-07 01:22 | 40.85037 | -74.46532 | 5915 ft | 314 kts | 68° |
| 2026-05-07 01:23 | 40.85847 | -74.43852 | 5920 ft | 315 kts | 67° |
| 2026-05-07 01:23 | 40.86648 | -74.41202 | 5909 ft | 316 kts | 68° |
| 2026-05-07 01:23 | 40.87466 | -74.38510 | 5912 ft | 316 kts | 68° |
| 2026-05-07 01:23 | 40.88297 | -74.35775 | 5886 ft | 316 kts | 68° |
| 2026-05-07 01:24 | 40.89101 | -74.33122 | 5881 ft | 315 kts | 68° |
| 2026-05-07 01:24 | 40.89911 | -74.30452 | 5901 ft | 314 kts | 67° |
| 2026-05-07 01:24 | 40.90723 | -74.27767 | 5919 ft | 314 kts | 68° |
| 2026-05-07 01:24 | 40.91536 | -74.25090 | 5905 ft | 313 kts | 68° |
| 2026-05-07 01:25 | 40.92353 | -74.22428 | 5904 ft | 312 kts | 68° |
| 2026-05-07 01:25 | 40.93169 | -74.19765 | 5901 ft | 312 kts | 67° |
| 2026-05-07 01:25 | 40.93976 | -74.17115 | 5903 ft | 312 kts | 68° |
| 2026-05-07 01:25 | 40.94788 | -74.14461 | 5898 ft | 309 kts | 68° |
| 2026-05-07 01:26 | 40.95286 | -74.11730 | 5792 ft | 307 kts | 91° |
| 2026-05-07 01:26 | 40.95018 | -74.08956 | 5568 ft | 302 kts | 107° |
| 2026-05-07 01:26 | 40.94540 | -74.06283 | 5218 ft | 302 kts | 107° |
| 2026-05-07 01:26 | 40.94046 | -74.03614 | 4946 ft | 298 kts | 107° |
| 2026-05-07 01:27 | 40.93535 | -74.00973 | 4666 ft | 290 kts | 110° |
| 2026-05-07 01:27 | 40.92614 | -73.98668 | 4212 ft | 283 kts | 137° |
| 2026-05-07 01:27 | 40.91047 | -73.97200 | 3865 ft | 271 kts | 165° |
| 2026-05-07 01:27 | 40.89247 | -73.96888 | 3557 ft | 257 kts | 193° |
| 2026-05-07 01:28 | 40.87642 | -73.97725 | 3232 ft | 245 kts | 222° |
| 2026-05-07 01:28 | 40.86518 | -73.99300 | 3077 ft | 234 kts | 235° |
| 2026-05-07 01:28 | 40.85538 | -74.01042 | 3021 ft | 238 kts | 237° |
| 2026-05-07 01:28 | 40.84551 | -74.02831 | 3005 ft | 242 kts | 237° |
| 2026-05-07 01:29 | 40.83582 | -74.04605 | 2979 ft | 231 kts | 237° |
| 2026-05-07 01:29 | 40.82658 | -74.06283 | 2889 ft | 222 kts | 237° |
| 2026-05-07 01:29 | 40.81755 | -74.07884 | 2730 ft | 214 kts | 232° |
| 2026-05-07 01:29 | 40.80586 | -74.09023 | 2635 ft | 201 kts | 216° |
| 2026-05-07 01:30 | 40.79429 | -74.09925 | 2520 ft | 188 kts | 216° |
| 2026-05-07 01:30 | 40.78310 | -74.10692 | 2197 ft | 176 kts | 213° |
| 2026-05-07 01:30 | 40.77234 | -74.11381 | 1824 ft | 167 kts | 212° |
| 2026-05-07 01:30 | 40.76207 | -74.12036 | 1408 ft | 161 kts | 212° |
| 2026-05-07 01:31 | 40.75284 | -74.12626 | 1202 ft | 135 kts | 211° |
| 2026-05-07 01:31 | 40.74468 | -74.13150 | 1013 ft | 130 kts | 211° |
| 2026-05-07 01:31 | 40.73652 | -74.13673 | 833 ft | 131 kts | 210° |
| 2026-05-07 01:31 | 40.72832 | -74.14201 | 710 ft | 129 kts | 209° |
| 2026-05-07 01:32 | 40.72020 | -74.14713 | 523 ft | 128 kts | 206° |
| 2026-05-07 01:32 | 40.71218 | -74.15228 | 361 ft | 127 kts | 205° |
| 2026-05-07 01:32 | 40.70415 | -74.15735 | 202 ft | 131 kts | 205° |
| 2026-05-07 01:32 | 40.69667 | -74.16216 | 50 ft | 127 kts | 205° |
| 2026-05-07 01:33 | 40.68945 | -74.16671 | 27 ft | 94 kts | 206° |
| 2026-05-07 01:33 | 40.68602 | -74.16899 | 26 ft | 34 kts | 218° |
| 2026-05-07 01:33 | 40.68489 | -74.17116 | 27 ft | 16 kts | 252° |
| 2026-05-07 01:33 | 40.68481 | -74.17148 | 28 ft | 0 kts | 251° |
| 2026-05-07 01:34 | 40.68472 | -74.17173 | 28 ft | 14 kts | 242° |
| 2026-05-07 01:34 | 40.68473 | -74.17322 | 28 ft | 17 kts | 289° |
| 2026-05-07 01:34 | 40.68532 | -74.17454 | 27 ft | 17 kts | 320° |
| 2026-05-07 01:34 | 40.68629 | -74.17525 | 27 ft | 17 kts | 8° |
| 2026-05-07 01:35 | 40.68739 | -74.17462 | 27 ft | 17 kts | 26° |
| 2026-05-07 01:35 | 40.68843 | -74.17395 | 27 ft | 17 kts | 26° |
| 2026-05-07 01:35 | 40.68949 | -74.17327 | 27 ft | 17 kts | 26° |
| 2026-05-07 01:35 | 40.69056 | -74.17259 | 26 ft | 17 kts | 26° |
| 2026-05-07 01:36 | 40.69162 | -74.17191 | 25 ft | 17 kts | 26° |
| 2026-05-07 01:36 | 40.69267 | -74.17124 | 26 ft | 17 kts | 26° |
| 2026-05-07 01:36 | 40.69378 | -74.17075 | 26 ft | 17 kts | 7° |
| 2026-05-07 01:36 | 40.69496 | -74.17074 | 26 ft | 17 kts | 355° |
| 2026-05-07 01:37 | 40.69610 | -74.17113 | 27 ft | 17 kts | 338° |
| 2026-05-07 01:37 | 40.69711 | -74.17181 | 17 ft | 13 kts | 323° |
| 2026-05-07 01:37 | 40.69707 | -74.17259 | 27 ft | 9 kts | 214° |
| 2026-05-07 01:37 | 40.69685 | -74.17262 | 27 ft | 2 kts | 174° |
| 2026-05-07 01:38 | 40.69671 | -74.17264 | 27 ft | 2 kts | 186° |
| 2026-05-07 01:38 | 40.69656 | -74.17267 | 27 ft | 2 kts | 191° |
| 2026-05-07 01:38 | 40.69648 | -74.17270 | 27 ft | 0 kts | 192° |